EWG2WL EDDS-LGTS
Flight info
| Callsign | EWG2WL |
|---|---|
| Flight time | N/A |
| Altitude | 37000 |
| Route | ABTAL4H ABTAL L173 RIXED Y161 MAH L173 OTT M867 RADIZ DCT LUPIX DCT KOTOR DCT NAVSU DCT GACMO DCT NIK DCT ENFAR DCT TALAS N130 ALIKO |
| Aircraft | A320/M-SDE3FGHIRWY/LB1 |
Departure
| Time | N/A |
|---|---|
| Airport | Stuttgart Airport (EDDS) |
Arrival
| Time | 2026-05-04 18:44 |
|---|---|
| Airport | Thessaloniki Macedonia International Airport (LGTS) |
| Time | Latitude | Longitude | Altitude | Speed | Heading |
|---|---|---|---|---|---|
| 2026-05-04 18:34 | 40.83140 | 22.34597 | 10693 ft | 344 kts | 124° |
| 2026-05-04 18:34 | 40.81725 | 22.37055 | 10571 ft | 329 kts | 124° |
| 2026-05-04 18:35 | 40.80367 | 22.39410 | 10448 ft | 316 kts | 124° |
| 2026-05-04 18:35 | 40.79060 | 22.41675 | 10326 ft | 304 kts | 124° |
| 2026-05-04 18:35 | 40.77799 | 22.43866 | 10129 ft | 296 kts | 124° |
| 2026-05-04 18:35 | 40.76594 | 22.46037 | 10045 ft | 293 kts | 122° |
| 2026-05-04 18:36 | 40.75468 | 22.48284 | 9705 ft | 297 kts | 120° |
| 2026-05-04 18:36 | 40.74374 | 22.50585 | 9328 ft | 294 kts | 120° |
| 2026-05-04 18:36 | 40.73299 | 22.52856 | 8979 ft | 290 kts | 120° |
| 2026-05-04 18:36 | 40.72210 | 22.55089 | 8552 ft | 290 kts | 124° |
| 2026-05-04 18:37 | 40.70743 | 22.56956 | 7955 ft | 299 kts | 145° |
| 2026-05-04 18:37 | 40.68813 | 22.57905 | 7635 ft | 297 kts | 173° |
| 2026-05-04 18:37 | 40.66792 | 22.57710 | 7430 ft | 288 kts | 195° |
| 2026-05-04 18:37 | 40.64953 | 22.56900 | 7272 ft | 277 kts | 194° |
| 2026-05-04 18:38 | 40.63075 | 22.56672 | 7071 ft | 268 kts | 173° |
| 2026-05-04 18:38 | 40.61322 | 22.57298 | 6878 ft | 257 kts | 151° |
| 2026-05-04 18:38 | 40.59879 | 22.58660 | 6475 ft | 253 kts | 131° |
| 2026-05-04 18:38 | 40.58896 | 22.60498 | 5817 ft | 245 kts | 110° |
| 2026-05-04 18:39 | 40.58409 | 22.62585 | 5144 ft | 236 kts | 100° |
| 2026-05-04 18:39 | 40.58042 | 22.64674 | 4592 ft | 233 kts | 100° |
| 2026-05-04 18:39 | 40.57665 | 22.66740 | 4260 ft | 231 kts | 101° |
| 2026-05-04 18:39 | 40.57279 | 22.68786 | 3937 ft | 230 kts | 101° |
| 2026-05-04 18:40 | 40.56899 | 22.70812 | 3636 ft | 227 kts | 101° |
| 2026-05-04 18:40 | 40.56525 | 22.72815 | 3314 ft | 221 kts | 101° |
| 2026-05-04 18:40 | 40.56177 | 22.74729 | 3084 ft | 211 kts | 101° |
| 2026-05-04 18:40 | 40.55828 | 22.76582 | 2784 ft | 208 kts | 102° |
| 2026-05-04 18:41 | 40.55470 | 22.78417 | 2489 ft | 205 kts | 103° |
| 2026-05-04 18:41 | 40.55141 | 22.80217 | 2250 ft | 200 kts | 102° |
| 2026-05-04 18:41 | 40.54822 | 22.81945 | 1994 ft | 186 kts | 103° |
| 2026-05-04 18:41 | 40.54528 | 22.83540 | 1838 ft | 177 kts | 103° |
| 2026-05-04 18:42 | 40.54234 | 22.85095 | 1529 ft | 172 kts | 103° |
| 2026-05-04 18:42 | 40.53961 | 22.86588 | 1271 ft | 164 kts | 103° |
| 2026-05-04 18:42 | 40.53694 | 22.87979 | 1088 ft | 150 kts | 105° |
| 2026-05-04 18:42 | 40.53446 | 22.89293 | 849 ft | 144 kts | 105° |
| 2026-05-04 18:43 | 40.53213 | 22.90518 | 692 ft | 138 kts | 105° |
| 2026-05-04 18:43 | 40.52979 | 22.91745 | 516 ft | 139 kts | 105° |
| 2026-05-04 18:43 | 40.52755 | 22.92960 | 360 ft | 135 kts | 104° |
| 2026-05-04 18:43 | 40.52532 | 22.94155 | 167 ft | 135 kts | 105° |
| 2026-05-04 18:44 | 40.52309 | 22.95332 | 40 ft | 128 kts | 106° |
| 2026-05-04 18:44 | 40.52177 | 22.96020 | 30 ft | 98 kts | 104° |
| 2026-05-04 18:44 | 40.52069 | 22.96597 | 29 ft | 23 kts | 100° |
| 2026-05-04 18:44 | 40.52109 | 22.96749 | 29 ft | 12 kts | 57° |
| 2026-05-04 18:45 | 40.52145 | 22.96820 | 29 ft | 7 kts | 58° |
| 2026-05-04 18:45 | 40.52159 | 22.96851 | 29 ft | 4 kts | 59° |
| 2026-05-04 18:45 | 40.52172 | 22.96881 | 28 ft | 4 kts | 65° |
| 2026-05-04 18:45 | 40.52170 | 22.96961 | 27 ft | 15 kts | 104° |
| 2026-05-04 18:46 | 40.52140 | 22.97116 | 26 ft | 19 kts | 103° |
| 2026-05-04 18:46 | 40.52115 | 22.97249 | 28 ft | 16 kts | 104° |
| 2026-05-04 18:46 | 40.52088 | 22.97393 | 28 ft | 15 kts | 104° |
| 2026-05-04 18:46 | 40.52061 | 22.97535 | 28 ft | 17 kts | 104° |
| 2026-05-04 18:47 | 40.52037 | 22.97658 | 29 ft | 14 kts | 104° |
| 2026-05-04 18:47 | 40.52045 | 22.97755 | 29 ft | 10 kts | 26° |
| 2026-05-04 18:47 | 40.52100 | 22.97718 | 29 ft | 9 kts | 313° |
| 2026-05-04 18:47 | 40.52144 | 22.97663 | 29 ft | 8 kts | 322° |
| 2026-05-04 18:48 | 40.52192 | 22.97625 | 29 ft | 8 kts | 326° |
| 2026-05-04 18:48 | 40.52229 | 22.97578 | 29 ft | 7 kts | 315° |
| 2026-05-04 18:48 | 40.52263 | 22.97534 | 29 ft | 6 kts | 314° |
| 2026-05-04 18:48 | 40.52288 | 22.97530 | 29 ft | 3 kts | 20° |
| 2026-05-04 18:49 | 40.52302 | 22.97548 | 29 ft | 3 kts | 47° |
| 2026-05-04 18:49 | 40.52314 | 22.97564 | 29 ft | 2 kts | 45° |
| 2026-05-04 18:49 | 40.52320 | 22.97572 | 29 ft | 1 kts | 45° |
| 2026-05-04 18:49 | 40.52320 | 22.97573 | 29 ft | 0 kts | 45° |